Time;durP1;ratioP1;P1;durP2;ratioP2;P2;SDS_P1;SDS_P2;PMS_P1;PMS_P2;Temp;Humidity;BMP_temperature;BMP_pressure;BME280_temperature;BME280_humidity;BME280_pressure;Samples;Min_cycle;Max_cycle;Signal;HPM_P1;HPM_P2
2023/11/04 00:00:45;;;;;;;1.38;1.05;;;12.40;63.70;14.10;98358.00;;;;5009140;28;20235;-79
2023/11/04 00:03:12;;;;;;;1.98;0.70;;;12.40;63.70;14.10;98359.00;;;;5020148;28;20200;-79
2023/11/04 00:05:39;;;;;;;1.20;0.70;;;12.50;63.70;14.20;98350.00;;;;5024309;28;21108;-78
2023/11/04 00:08:06;;;;;;;3.92;0.85;;;12.50;63.70;14.20;98356.00;;;;5009709;28;20205;-79
2023/11/04 00:10:33;;;;;;;1.55;0.63;;;12.50;63.60;14.20;98352.00;;;;5021035;28;20197;-79
2023/11/04 00:13:01;;;;;;;0.93;0.60;;;12.50;63.60;14.30;98345.00;;;;5008374;28;20734;-79
2023/11/04 00:15:28;;;;;;;2.15;0.63;;;12.60;63.70;14.30;98343.00;;;;5008828;28;20196;-79
2023/11/04 00:17:55;;;;;;;3.08;0.70;;;12.60;63.70;14.30;98345.00;;;;5019635;28;20578;-79
2023/11/04 00:20:22;;;;;;;1.00;0.70;;;12.60;63.60;14.30;98343.00;;;;5021440;28;20197;-79
2023/11/04 00:22:49;;;;;;;1.30;0.50;;;12.60;63.50;14.30;98342.00;;;;5015220;28;20296;-79
2023/11/04 00:25:16;;;;;;;3.03;0.52;;;12.70;63.60;14.40;98337.00;;;;5026449;28;20228;-79
2023/11/04 00:27:43;;;;;;;1.00;0.70;;;12.70;63.60;14.40;98341.00;;;;5010762;28;20207;-79
2023/11/04 00:30:13;;;;;;;1.70;0.80;;;12.70;63.50;14.40;98338.00;;;;5019468;28;20698;-79
2023/11/04 00:32:40;;;;;;;1.75;0.73;;;12.80;63.60;14.40;98343.00;;;;5007318;28;20224;-79
2023/11/04 00:35:09;;;;;;;0.75;0.50;;;12.70;63.50;14.40;98334.00;;;;5013162;28;20196;-79
2023/11/04 00:37:37;;;;;;;1.98;0.80;;;12.80;63.60;14.40;98325.00;;;;5009287;28;20201;-79
2023/11/04 00:40:06;;;;;;;1.40;0.60;;;12.80;63.50;14.50;98335.00;;;;5020803;28;20192;-79
2023/11/04 00:42:33;;;;;;;1.10;0.68;;;12.80;63.50;14.50;98332.00;;;;5009668;28;20213;-79
2023/11/04 00:45:00;;;;;;;0.88;0.68;;;12.80;63.50;14.50;98342.00;;;;5014615;28;20197;-79
2023/11/04 00:47:28;;;;;;;1.15;0.65;;;12.90;63.60;14.50;98334.00;;;;5008903;28;20212;-78
2023/11/04 00:49:55;;;;;;;0.73;0.60;;;12.90;63.50;14.60;98332.00;;;;5009827;28;20200;-78
2023/11/04 00:52:22;;;;;;;1.48;0.82;;;12.90;63.50;14.60;98337.00;;;;5028772;28;20705;-78
2023/11/04 00:54:49;;;;;;;2.53;0.90;;;12.90;63.50;14.60;98332.00;;;;5026736;28;20200;-78
2023/11/04 00:57:16;;;;;;;1.23;0.80;;;12.90;63.50;14.60;98338.00;;;;5013113;28;20781;-78
2023/11/04 00:59:43;;;;;;;1.90;0.90;;;13.00;63.50;14.60;98331.00;;;;5030326;28;20215;-78
2023/11/04 01:02:10;;;;;;;1.88;0.60;;;13.00;63.50;14.60;98333.00;;;;5016327;28;20255;-78
2023/11/04 01:04:38;;;;;;;1.80;0.68;;;13.00;63.60;14.60;98329.00;;;;5016855;28;20251;-78
2023/11/04 01:07:05;;;;;;;1.50;0.70;;;13.00;63.50;14.70;98337.00;;;;5017757;28;20197;-78
2023/11/04 01:09:32;;;;;;;1.77;0.77;;;13.00;63.50;14.70;98331.00;;;;5014949;28;20251;-78
2023/11/04 01:11:59;;;;;;;1.67;0.93;;;13.00;63.50;14.70;98332.00;;;;5011610;28;20235;-78
2023/11/04 01:14:26;;;;;;;1.10;0.80;;;13.10;63.50;14.70;98337.00;;;;5016737;28;20581;-78
2023/11/04 01:16:53;;;;;;;0.80;0.60;;;13.10;63.60;14.70;98320.00;;;;5012389;28;20201;-78
2023/11/04 01:19:20;;;;;;;2.88;0.68;;;13.10;63.50;14.70;98327.00;;;;5012845;28;20201;-78
2023/11/04 01:21:49;;;;;;;2.58;0.73;;;13.10;63.50;14.70;98323.00;;;;5024204;28;20208;-79
2023/11/04 01:24:16;;;;;;;1.33;0.77;;;13.10;63.50;14.80;98323.00;;;;5031761;28;20208;-79
2023/11/04 01:26:43;;;;;;;2.95;0.70;;;13.10;63.50;14.70;98322.00;;;;5030740;28;20192;-78
2023/11/04 01:29:11;;;;;;;1.33;0.70;;;13.10;63.50;14.80;98317.00;;;;5012396;28;20193;-78
2023/11/04 01:31:37;;;;;;;1.33;1.00;;;13.10;63.50;14.80;98321.00;;;;5011831;28;20676;-78
2023/11/04 01:34:05;;;;;;;2.17;0.90;;;13.20;63.60;14.80;98315.00;;;;5011590;28;20226;-78
2023/11/04 01:36:32;;;;;;;1.58;1.00;;;13.20;63.60;14.80;98309.00;;;;5014899;28;20555;-78
2023/11/04 01:39:00;;;;;;;1.88;1.20;;;13.20;63.60;14.80;98305.00;;;;5011685;28;20199;-78
2023/11/04 01:41:27;;;;;;;1.15;0.80;;;13.20;63.70;14.80;98310.00;;;;5011858;28;20201;-79
2023/11/04 01:43:54;;;;;;;4.03;0.85;;;13.20;63.70;14.80;98310.00;;;;5011930;28;20209;-78
2023/11/04 01:46:24;;;;;;;1.10;0.80;;;13.20;63.70;14.80;98311.00;;;;5011273;28;20228;-78
2023/11/04 01:48:51;;;;;;;0.98;0.80;;;13.20;63.70;14.90;98311.00;;;;5012431;28;20225;-79
2023/11/04 01:51:19;;;;;;;3.20;0.90;;;13.20;63.60;14.90;98306.00;;;;5011297;28;20212;-78
2023/11/04 01:53:51;;;;;;;1.45;0.93;;;13.30;63.80;14.90;98310.00;;;;5014797;28;20722;-78
2023/11/04 01:56:26;;;;;;;1.65;0.82;;;13.30;63.80;14.90;98306.00;;;;5011515;28;20561;-78
2023/11/04 01:58:57;;;;;;;1.70;1.00;;;13.30;63.80;14.90;98303.00;;;;5011267;28;20204;-78
2023/11/04 02:01:25;;;;;;;1.30;0.85;;;13.30;63.80;15.00;98302.00;;;;5015069;28;20227;-78
2023/11/04 02:03:53;;;;;;;1.75;1.00;;;13.30;63.90;15.00;98286.00;;;;5037744;28;20749;-78
2023/11/04 02:06:20;;;;;;;1.23;0.80;;;13.30;63.80;15.00;98293.00;;;;5013940;28;20200;-78
2023/11/04 02:08:47;;;;;;;2.63;1.00;;;13.40;63.90;15.00;98291.00;;;;5024235;28;20200;-78
2023/11/04 02:11:14;;;;;;;1.45;1.10;;;13.30;63.80;15.00;98293.00;;;;5021469;28;20317;-78
2023/11/04 02:13:44;;;;;;;1.10;1.00;;;13.40;63.90;15.00;98295.00;;;;5010648;28;20196;-78
2023/11/04 02:16:11;;;;;;;1.60;1.10;;;13.40;64.00;15.00;98289.00;;;;5011813;28;20252;-78
2023/11/04 02:18:38;;;;;;;4.22;1.00;;;13.40;63.90;15.00;98292.00;;;;5010879;28;20571;-78
2023/11/04 02:21:07;;;;;;;2.60;1.00;;;13.40;64.70;15.00;98290.00;;;;5012348;28;20670;-78
2023/11/04 02:23:34;;;;;;;2.17;1.20;;;13.40;64.00;15.10;98293.00;;;;5020106;28;20196;-78
2023/11/04 02:26:01;;;;;;;1.35;0.80;;;13.50;64.00;15.10;98297.00;;;;5029325;28;20585;-78
2023/11/04 02:28:28;;;;;;;1.17;1.00;;;13.40;64.00;15.10;98296.00;;;;5020227;28;20211;-78
2023/11/04 02:30:56;;;;;;;2.35;0.85;;;13.50;64.10;15.10;98295.00;;;;5010880;28;20667;-78
2023/11/04 02:33:23;;;;;;;1.40;0.90;;;13.50;64.10;15.10;98291.00;;;;5010397;28;20681;-79
2023/11/04 02:35:51;;;;;;;2.33;1.65;;;13.50;64.10;15.20;98286.00;;;;5010312;28;20670;-79
2023/11/04 02:38:19;;;;;;;1.98;0.77;;;13.50;64.10;15.20;98287.00;;;;5023073;28;20188;-78
2023/11/04 02:40:46;;;;;;;1.33;1.00;;;13.50;64.10;15.20;98278.00;;;;5010935;28;20193;-78
2023/11/04 02:43:13;;;;;;;1.95;1.05;;;13.60;64.10;15.20;98283.00;;;;5010212;28;20201;-78
2023/11/04 02:45:40;;;;;;;13.60;1.23;;;13.60;64.20;15.20;98283.00;;;;5022713;28;20205;-78
2023/11/04 02:48:07;;;;;;;1.67;0.93;;;13.60;64.10;15.20;98281.00;;;;5015962;28;20201;-78
2023/11/04 02:50:35;;;;;;;1.15;1.05;;;13.60;64.10;15.20;98272.00;;;;5010034;28;20197;-79
2023/11/04 02:53:02;;;;;;;0.85;0.65;;;13.60;64.10;15.20;98263.00;;;;5011092;28;20311;-79
2023/11/04 02:55:31;;;;;;;1.45;1.00;;;13.60;64.10;15.20;98271.00;;;;5011292;28;20192;-79
2023/11/04 02:57:58;;;;;;;3.47;1.50;;;13.60;64.10;15.30;98273.00;;;;5009822;28;20988;-79
2023/11/04 03:00:25;;;;;;;3.35;1.40;;;13.60;64.10;15.30;98271.00;;;;5009849;28;20193;-79
2023/11/04 03:02:53;;;;;;;3.13;1.10;;;13.60;64.20;15.30;98271.00;;;;5010611;28;20206;-79
2023/11/04 03:05:21;;;;;;;1.77;1.30;;;13.60;64.10;15.30;98265.00;;;;5014084;28;20216;-79
2023/11/04 03:07:47;;;;;;;2.08;1.33;;;13.60;64.20;15.30;98260.00;;;;5020576;28;20209;-79
2023/11/04 03:10:15;;;;;;;2.70;1.20;;;13.70;64.30;15.30;98262.00;;;;5010198;28;20193;-79
2023/11/04 03:12:43;;;;;;;2.10;1.10;;;13.70;64.30;15.30;98252.00;;;;5008766;28;20230;-78
2023/11/04 03:15:11;;;;;;;2.70;1.00;;;13.70;64.30;15.30;98249.00;;;;5009391;28;20201;-79
2023/11/04 03:17:38;;;;;;;1.67;1.05;;;13.70;64.30;15.40;98248.00;;;;5016314;28;20193;-79
2023/11/04 03:20:08;;;;;;;4.07;1.30;;;13.70;64.30;15.30;98249.00;;;;5009521;28;20749;-80
2023/11/04 03:22:35;;;;;;;1.58;1.10;;;13.70;64.30;15.40;98250.00;;;;5012721;28;20279;-79
2023/11/04 03:25:04;;;;;;;1.88;1.05;;;13.80;64.40;15.40;98250.00;;;;5015777;28;20204;-79
2023/11/04 03:27:31;;;;;;;1.48;1.00;;;13.70;64.40;15.40;98248.00;;;;5012889;28;20196;-79
2023/11/04 03:29:59;;;;;;;1.27;1.08;;;13.70;64.30;15.40;98250.00;;;;5018568;28;20215;-79
2023/11/04 03:32:26;;;;;;;2.42;1.33;;;13.80;64.40;15.40;98239.00;;;;5008931;28;20225;-79
2023/11/04 03:34:54;;;;;;;1.67;1.20;;;13.80;64.40;15.40;98242.00;;;;5009096;28;20300;-80
2023/11/04 03:37:20;;;;;;;2.08;1.27;;;13.80;64.50;15.40;98247.00;;;;5011974;28;20208;-79
2023/11/04 03:39:47;;;;;;;1.75;1.30;;;13.80;64.50;15.40;98238.00;;;;5026999;28;20200;-78
2023/11/04 03:42:14;;;;;;;2.15;1.10;;;13.80;64.50;15.50;98238.00;;;;5013746;28;20196;-79
2023/11/04 03:44:41;;;;;;;2.10;1.55;;;13.80;64.50;15.50;98232.00;;;;5009592;28;20569;-79
2023/11/04 03:47:10;;;;;;;3.28;1.25;;;13.80;64.50;15.50;98235.00;;;;5020945;28;20678;-79
2023/11/04 03:49:36;;;;;;;1.83;1.23;;;13.80;64.50;15.40;98224.00;;;;5009354;28;20195;-79
2023/11/04 03:52:04;;;;;;;2.00;1.30;;;13.80;64.50;15.50;98223.00;;;;5018919;28;20952;-79
2023/11/04 03:54:33;;;;;;;2.00;0.98;;;13.80;64.50;15.40;98220.00;;;;5009498;28;20193;-79
2023/11/04 03:57:00;;;;;;;3.40;1.17;;;13.80;64.50;15.40;98216.00;;;;5010357;28;20275;-79
2023/11/04 03:59:27;;;;;;;3.38;1.35;;;13.80;64.50;15.40;98225.00;;;;5016547;28;20201;-79
2023/11/04 04:01:54;;;;;;;1.77;1.30;;;13.80;64.60;15.40;98215.00;;;;5017472;28;20224;-79
2023/11/04 04:04:23;;;;;;;1.67;1.23;;;13.90;64.60;15.40;98206.00;;;;5009047;28;20235;-79
2023/11/04 04:06:50;;;;;;;2.53;1.38;;;13.80;64.60;15.40;98211.00;;;;5008620;28;20570;-79
2023/11/04 04:09:17;;;;;;;1.60;1.33;;;13.80;64.60;15.40;98206.00;;;;5008702;28;20227;-78
2023/11/04 04:11:44;;;;;;;1.50;1.13;;;13.80;64.70;15.40;98215.00;;;;5020013;28;20205;-80
2023/11/04 04:14:11;;;;;;;1.77;1.30;;;13.80;64.70;15.40;98215.00;;;;5017195;28;20201;-79
2023/11/04 04:16:38;;;;;;;2.05;1.30;;;13.90;64.80;15.40;98221.00;;;;5007197;28;20208;-78
2023/11/04 04:19:05;;;;;;;2.45;1.33;;;13.80;64.70;15.40;98221.00;;;;5008903;28;20204;-79
2023/11/04 04:21:33;;;;;;;1.58;1.23;;;13.90;64.90;15.40;98210.00;;;;5014920;28;20189;-79
2023/11/04 04:24:00;;;;;;;2.70;1.27;;;13.80;64.90;15.40;98209.00;;;;5011642;28;20231;-80
2023/11/04 04:26:27;;;;;;;2.50;1.38;;;13.80;64.90;15.40;98209.00;;;;5009559;28;20280;-79
2023/11/04 04:28:54;;;;;;;1.77;1.45;;;13.80;64.80;15.40;98211.00;;;;5017082;28;20674;-79
2023/11/04 04:31:22;;;;;;;3.13;1.98;;;13.80;64.80;15.40;98204.00;;;;5008565;28;20567;-78
2023/11/04 04:33:49;;;;;;;2.85;1.40;;;13.90;64.90;15.40;98209.00;;;;5019234;28;20278;-79
2023/11/04 04:36:16;;;;;;;3.95;1.65;;;13.90;65.10;15.40;98192.00;;;;5014690;28;20211;-78
2023/11/04 04:38:44;;;;;;;2.90;1.60;;;13.80;65.00;15.50;98197.00;;;;5008692;28;20541;-79
2023/11/04 04:41:12;;;;;;;4.82;1.58;;;13.80;65.00;15.50;98190.00;;;;5016775;28;20250;-79
2023/11/04 04:43:38;;;;;;;3.60;1.67;;;13.80;65.00;15.50;98192.00;;;;5011304;28;20204;-79
2023/11/04 04:46:06;;;;;;;1.60;1.42;;;13.90;65.10;15.50;98185.00;;;;5020694;28;20193;-78
2023/11/04 04:48:34;;;;;;;3.75;1.80;;;13.80;65.00;15.50;98188.00;;;;5019361;28;20208;-79
2023/11/04 04:51:01;;;;;;;1.83;1.38;;;13.90;65.20;15.50;98181.00;;;;5021169;28;20236;-79
2023/11/04 04:53:28;;;;;;;3.80;1.55;;;13.90;65.10;15.50;98175.00;;;;5024014;28;20212;-79
2023/11/04 04:55:56;;;;;;;1.90;1.48;;;13.90;65.10;15.50;98182.00;;;;5027712;28;20204;-79
2023/11/04 04:58:23;;;;;;;2.63;1.90;;;13.80;65.20;15.50;98186.00;;;;5010303;28;20271;-79
2023/11/04 05:00:50;;;;;;;2.70;1.50;;;13.90;65.40;15.50;98184.00;;;;5009522;28;20236;-79
2023/11/04 05:03:18;;;;;;;5.57;1.48;;;13.90;66.00;15.50;98167.00;;;;5009262;28;20200;-79
2023/11/04 05:05:45;;;;;;;1.98;1.50;;;13.90;65.30;15.50;98174.00;;;;5008049;28;20217;-78
2023/11/04 05:08:11;;;;;;;5.90;1.60;;;13.90;65.30;15.50;98174.00;;;;5010224;28;20196;-79
2023/11/04 05:10:38;;;;;;;1.88;1.48;;;13.90;65.30;15.50;98172.00;;;;5019622;28;20663;-78
2023/11/04 05:13:08;;;;;;;2.58;1.58;;;13.90;65.40;15.50;98170.00;;;;5021527;28;20379;-78
2023/11/04 05:15:35;;;;;;;1.48;1.38;;;13.90;65.40;15.50;98161.00;;;;5008616;28;20562;-79
2023/11/04 05:18:01;;;;;;;2.40;1.20;;;13.90;65.40;15.50;98166.00;;;;5008836;28;20678;-78
2023/11/04 05:20:29;;;;;;;1.63;1.20;;;14.00;65.40;15.60;98160.00;;;;5007632;28;20651;-78
2023/11/04 05:22:57;;;;;;;1.60;1.42;;;14.00;65.50;15.60;98157.00;;;;5016514;28;20200;-78
2023/11/04 05:25:24;;;;;;;2.90;1.70;;;13.90;65.40;15.60;98162.00;;;;5018383;28;20197;-78
2023/11/04 05:27:51;;;;;;;1.48;1.23;;;14.00;65.40;15.60;98156.00;;;;5007862;28;20689;-78
2023/11/04 05:30:21;;;;;;;2.22;1.52;;;14.00;65.40;15.60;98146.00;;;;5008872;28;20231;-78
2023/11/04 05:32:48;;;;;;;2.67;1.60;;;14.00;65.40;15.60;98139.00;;;;5011319;28;20316;-78
2023/11/04 05:35:15;;;;;;;1.42;1.33;;;14.00;65.40;15.60;98139.00;;;;5025439;28;20216;-79
2023/11/04 05:37:43;;;;;;;2.08;1.40;;;14.00;65.40;15.60;98141.00;;;;5030707;28;20200;-78
2023/11/04 05:40:11;;;;;;;2.38;1.67;;;14.00;65.40;15.60;98136.00;;;;5024965;28;20200;-78
2023/11/04 05:42:38;;;;;;;1.95;1.40;;;14.00;65.40;15.60;98129.00;;;;5018234;28;20200;-79
2023/11/04 05:45:06;;;;;;;2.72;1.90;;;14.00;65.40;15.60;98123.00;;;;5014281;28;20578;-78
2023/11/04 05:47:35;;;;;;;1.73;1.48;;;14.00;65.40;15.60;98116.00;;;;5015836;28;20189;-78
2023/11/04 05:50:02;;;;;;;1.60;1.40;;;14.00;65.40;15.60;98113.00;;;;5019887;28;20288;-79
2023/11/04 05:52:29;;;;;;;1.73;1.13;;;14.10;65.30;15.70;98117.00;;;;5028550;28;20222;-78
2023/11/04 05:54:56;;;;;;;3.30;1.75;;;14.00;65.20;15.70;98115.00;;;;5014353;28;20212;-78
2023/11/04 05:57:23;;;;;;;2.78;1.65;;;14.00;65.20;15.70;98106.00;;;;5019363;28;20192;-78
2023/11/04 05:59:50;;;;;;;1.85;1.30;;;14.00;65.20;15.70;98101.00;;;;5013765;28;20209;-78
2023/11/04 06:02:17;;;;;;;2.70;1.65;;;14.10;65.30;15.70;98105.00;;;;5012676;28;20236;-79
2023/11/04 06:04:45;;;;;;;5.68;2.08;;;14.10;65.20;15.60;98103.00;;;;5018944;28;20219;-79
2023/11/04 06:07:12;;;;;;;1.98;1.70;;;14.10;65.20;15.60;98099.00;;;;5026186;28;20569;-78
2023/11/04 06:09:40;;;;;;;2.30;1.25;;;14.10;65.10;15.60;98100.00;;;;5011854;28;20772;-79
2023/11/04 06:12:07;;;;;;;2.97;1.70;;;14.10;65.10;15.60;98097.00;;;;5024554;28;20196;-79
2023/11/04 06:14:35;;;;;;;3.15;1.58;;;14.00;65.10;15.60;98096.00;;;;5027372;28;20702;-79
2023/11/04 06:17:03;;;;;;;1.90;1.08;;;14.00;65.10;15.60;98092.00;;;;5028588;28;20200;-79
2023/11/04 06:19:30;;;;;;;4.20;1.70;;;14.00;65.10;15.60;98086.00;;;;5027686;28;20281;-80
2023/11/04 06:21:59;;;;;;;3.17;1.55;;;14.00;65.10;15.60;98087.00;;;;5019766;28;20678;-79
2023/11/04 06:24:25;;;;;;;2.88;1.27;;;14.10;65.10;15.60;98088.00;;;;5021521;28;20192;-79
2023/11/04 06:26:52;;;;;;;2.22;1.50;;;14.00;65.10;15.70;98087.00;;;;5023839;28;20209;-79
2023/11/04 06:29:20;;;;;;;3.42;1.58;;;14.00;65.10;15.70;98076.00;;;;5029575;28;20188;-79
2023/11/04 06:31:47;;;;;;;3.35;1.27;;;14.00;65.10;15.70;98077.00;;;;5029520;28;20188;-79
2023/11/04 06:34:14;;;;;;;2.88;1.30;;;14.00;65.10;15.70;98080.00;;;;5025684;28;21007;-78
2023/11/04 06:36:41;;;;;;;5.20;1.70;;;14.00;65.10;15.70;98076.00;;;;5023839;28;20240;-79
2023/11/04 06:39:09;;;;;;;2.22;1.00;;;14.10;65.10;15.70;98081.00;;;;5026005;28;20235;-79
2023/11/04 06:41:37;;;;;;;4.95;1.50;;;14.10;65.10;15.70;98081.00;;;;5026854;28;20200;-79
2023/11/04 06:44:05;;;;;;;3.30;1.42;;;14.10;65.20;15.70;98080.00;;;;5027854;28;20203;-79
2023/11/04 06:46:32;;;;;;;3.13;1.08;;;14.10;65.10;15.70;98078.00;;;;5019375;28;20733;-79
2023/11/04 06:48:59;;;;;;;1.95;1.23;;;14.10;65.10;15.70;98077.00;;;;5023639;28;20658;-79
2023/11/04 06:51:26;;;;;;;4.40;1.52;;;14.10;65.10;15.70;98075.00;;;;5025351;28;20895;-78
2023/11/04 06:53:56;;;;;;;2.88;1.35;;;14.10;65.10;15.70;98078.00;;;;5021198;28;20224;-79
2023/11/04 06:56:25;;;;;;;2.20;1.23;;;14.10;65.00;15.70;98074.00;;;;5020786;28;20235;-79
2023/11/04 06:58:53;;;;;;;3.83;1.17;;;14.10;65.00;15.70;98068.00;;;;5019364;28;20737;-79
2023/11/04 07:01:21;;;;;;;2.00;1.25;;;14.10;65.00;15.70;98078.00;;;;5018840;28;20247;-79
2023/11/04 07:03:48;;;;;;;2.25;1.33;;;14.10;65.00;15.70;98074.00;;;;5027117;28;20289;-79
2023/11/04 07:06:16;;;;;;;3.88;1.25;;;14.10;64.90;15.70;98075.00;;;;5024563;28;20201;-80
2023/11/04 07:08:43;;;;;;;3.92;1.20;;;14.10;65.00;15.70;98079.00;;;;5022441;28;20231;-80
2023/11/04 07:11:16;;;;;;;2.22;0.95;;;14.10;65.00;15.70;98075.00;;;;5020857;28;20189;-80
2023/11/04 07:13:45;;;;;;;3.03;1.63;;;14.10;64.80;15.70;98082.00;;;;5027361;28;20235;-80
2023/11/04 07:16:14;;;;;;;3.65;1.10;;;14.10;64.70;15.70;98077.00;;;;5024997;28;20287;-80
2023/11/04 07:18:41;;;;;;;3.40;0.85;;;14.10;64.70;15.70;98071.00;;;;5016964;28;20203;-80
2023/11/04 07:21:09;;;;;;;3.33;1.08;;;14.10;64.80;15.70;98071.00;;;;5024161;28;20189;-79
2023/11/04 07:23:36;;;;;;;3.83;1.50;;;14.10;64.80;15.70;98057.00;;;;5020536;28;20205;-79
2023/11/04 07:26:04;;;;;;;3.63;1.00;;;14.10;64.70;15.70;98058.00;;;;5021507;28;20566;-80
2023/11/04 07:28:35;;;;;;;3.58;1.55;;;14.10;64.70;15.80;98055.00;;;;5024099;28;20666;-79
2023/11/04 07:31:07;;;;;;;1.92;1.00;;;14.10;64.90;15.70;98047.00;;;;5023875;28;20185;-79
2023/11/04 07:33:36;;;;;;;3.97;1.30;;;14.20;64.80;15.80;98041.00;;;;5028599;28;20231;-79
2023/11/04 07:36:03;;;;;;;4.85;1.50;;;14.20;64.80;15.80;98037.00;;;;5026527;28;20713;-80
2023/11/04 07:38:32;;;;;;;2.95;1.00;;;14.20;64.80;15.80;98041.00;;;;5024220;28;20188;-79
2023/11/04 07:40:59;;;;;;;3.45;1.42;;;14.20;64.80;15.80;98047.00;;;;5028560;28;20275;-81
2023/11/04 07:43:27;;;;;;;2.15;1.10;;;14.20;65.00;15.80;98042.00;;;;5017659;28;20196;-78
2023/11/04 07:45:54;;;;;;;2.05;1.05;;;14.20;64.90;15.90;98033.00;;;;5018838;28;20741;-79
2023/11/04 07:48:23;;;;;;;3.80;1.40;;;14.20;64.90;15.90;98025.00;;;;5027414;28;20227;-79
2023/11/04 07:50:50;;;;;;;1.80;0.95;;;14.20;64.90;15.90;98024.00;;;;5025987;28;20200;-79
2023/11/04 07:53:17;;;;;;;3.58;1.13;;;14.30;65.00;16.00;98011.00;;;;5022330;28;20223;-78
2023/11/04 07:55:44;;;;;;;1.58;0.77;;;14.30;65.00;16.00;98023.00;;;;5018486;28;20280;-79
2023/11/04 07:58:11;;;;;;;2.15;1.20;;;14.30;64.90;16.00;98006.00;;;;5025381;28;20279;-79
2023/11/04 08:00:38;;;;;;;2.78;0.82;;;14.40;64.80;16.00;98004.00;;;;5026687;28;20601;-79
2023/11/04 08:03:06;;;;;;;1.42;0.80;;;14.40;64.80;16.00;97994.00;;;;5024325;28;20196;-78
2023/11/04 08:05:40;;;;;;;4.32;1.45;;;14.40;64.70;16.00;97983.00;;;;5022205;28;20308;-78
2023/11/04 08:08:09;;;;;;;3.05;1.10;;;14.40;64.70;16.10;97991.00;;;;5020921;28;20772;-78
2023/11/04 08:10:37;;;;;;;1.60;1.10;;;14.40;64.50;16.10;97979.00;;;;5023019;28;20210;-80
2023/11/04 08:13:04;;;;;;;4.47;1.38;;;14.40;64.40;16.10;97974.00;;;;5018400;28;20200;-79
2023/11/04 08:15:31;;;;;;;3.30;0.80;;;14.40;64.30;16.10;97967.00;;;;5021270;28;20199;-79
2023/11/04 08:17:59;;;;;;;1.45;0.75;;;14.50;64.30;16.10;97962.00;;;;5025756;28;20196;-77
2023/11/04 08:20:26;;;;;;;3.05;1.25;;;14.40;64.20;16.10;97946.00;;;;5010496;28;20346;-78
2023/11/04 08:22:54;;;;;;;1.83;0.82;;;14.40;64.00;16.10;97943.00;;;;5024633;28;20569;-78
2023/11/04 08:25:22;;;;;;;3.60;0.75;;;14.50;64.10;16.10;97937.00;;;;5017380;28;20204;-78
2023/11/04 08:27:49;;;;;;;3.45;0.80;;;14.50;64.00;16.10;97936.00;;;;5022177;28;20204;-77
2023/11/04 08:30:16;;;;;;;3.30;0.82;;;14.50;64.00;16.10;97926.00;;;;5024216;28;20208;-77
2023/11/04 08:32:43;;;;;;;1.65;0.73;;;14.50;63.90;16.10;97930.00;;;;5016359;28;20208;-78
2023/11/04 08:35:10;;;;;;;2.10;0.80;;;14.50;63.90;16.10;97925.00;;;;5007971;28;20225;-77
2023/11/04 08:37:36;;;;;;;1.70;0.77;;;14.50;63.80;16.10;97922.00;;;;5011605;28;20204;-77
2023/11/04 08:40:07;;;;;;;3.33;0.85;;;14.50;63.80;16.10;97916.00;;;;5019720;28;20600;-77
2023/11/04 08:42:34;;;;;;;9.65;1.20;;;14.40;63.70;16.10;97913.00;;;;5019109;28;20316;-79
2023/11/04 08:45:01;;;;;;;3.22;0.70;;;14.50;63.90;16.20;97917.00;;;;5015347;28;20566;-79
2023/11/04 08:47:28;;;;;;;2.92;1.20;;;14.50;64.00;16.20;97911.00;;;;5008302;28;20193;-80
2023/11/04 08:49:55;;;;;;;4.55;1.33;;;14.50;63.90;16.20;97910.00;;;;5011645;28;20296;-80
2023/11/04 08:52:22;;;;;;;2.75;1.13;;;14.50;63.90;16.20;97908.00;;;;5009285;28;20205;-81
2023/11/04 08:54:50;;;;;;;1.67;1.00;;;14.50;63.90;16.20;97905.00;;;;5009741;28;20229;-80
2023/11/04 08:57:18;;;;;;;2.60;0.85;;;14.50;64.00;16.30;97898.00;;;;5023482;28;20208;-81
2023/11/04 08:59:46;;;;;;;1.98;1.00;;;14.50;63.90;16.30;97891.00;;;;5021998;28;20193;-82
2023/11/04 09:02:13;;;;;;;2.22;0.90;;;14.60;64.00;16.30;97896.00;;;;5025830;28;20351;-81
2023/11/04 09:04:40;;;;;;;6.53;1.00;;;14.60;64.00;16.30;97881.00;;;;5009640;28;20217;-81
2023/11/04 09:07:07;;;;;;;1.50;0.70;;;14.60;63.90;16.40;97883.00;;;;5007707;28;20198;-80
2023/11/04 09:09:34;;;;;;;1.27;0.68;;;14.70;63.90;16.40;97869.00;;;;5013746;28;20201;-81
2023/11/04 09:12:01;;;;;;;2.22;1.13;;;14.70;63.90;16.40;97889.00;;;;5018119;28;20693;-80
2023/11/04 09:14:29;;;;;;;3.28;1.00;;;14.70;63.80;16.40;97880.00;;;;5017250;28;20589;-79
2023/11/04 09:16:56;;;;;;;1.50;0.80;;;14.70;63.80;16.50;97878.00;;;;5017413;28;20212;-81
2023/11/04 09:19:24;;;;;;;5.45;1.33;;;14.80;63.80;16.50;97882.00;;;;5018337;28;20571;-80
2023/11/04 09:21:51;;;;;;;2.17;0.70;;;14.80;63.80;16.50;97874.00;;;;5016747;28;20256;-80
2023/11/04 09:24:18;;;;;;;4.13;1.40;;;14.80;63.80;16.50;97879.00;;;;5010628;28;20284;-80
2023/11/04 09:26:46;;;;;;;1.08;0.70;;;14.90;63.90;16.60;97862.00;;;;5012027;28;20251;-79
2023/11/04 09:29:13;;;;;;;4.15;0.90;;;14.90;63.90;16.60;97864.00;;;;5011072;28;20590;-77
2023/11/04 09:31:41;;;;;;;1.67;0.75;;;14.90;64.00;16.70;97861.00;;;;5010785;28;20200;-77
2023/11/04 09:34:08;;;;;;;1.88;0.85;;;15.00;64.10;16.80;97847.00;;;;5025585;28;20228;-78
2023/11/04 09:36:35;;;;;;;1.95;0.60;;;15.00;64.10;16.80;97849.00;;;;5028522;28;20197;-78
2023/11/04 09:39:04;;;;;;;2.85;0.90;;;15.10;64.70;16.90;97849.00;;;;5011777;28;20212;-78
2023/11/04 09:41:31;;;;;;;1.42;0.80;;;15.20;63.90;16.90;97844.00;;;;5012388;28;20218;-79
2023/11/04 09:43:58;;;;;;;4.75;1.40;;;15.20;63.90;16.90;97840.00;;;;5016993;28;20886;-80
2023/11/04 09:46:26;;;;;;;3.33;0.85;;;15.30;63.80;16.90;97831.00;;;;5028508;28;20193;-80
2023/11/04 09:48:54;;;;;;;26.38;1.60;;;15.30;63.50;17.00;97833.00;;;;5026489;28;20197;-80
2023/11/04 09:51:23;;;;;;;2.53;0.60;;;15.40;63.30;17.00;97829.00;;;;5017709;28;20204;-78
2023/11/04 09:53:54;;;;;;;5.25;0.60;;;15.40;63.10;17.00;97817.00;;;;5011173;28;20217;-79
2023/11/04 09:56:22;;;;;;;1.17;0.60;;;15.40;62.80;17.00;97815.00;;;;5012954;28;20205;-79
2023/11/04 09:58:50;;;;;;;1.00;0.60;;;15.40;62.80;17.00;97807.00;;;;5026962;28;20295;-80
2023/11/04 10:01:18;;;;;;;2.75;0.68;;;15.40;62.70;17.10;97799.00;;;;5023216;28;20233;-80
2023/11/04 10:03:47;;;;;;;1.77;0.70;;;15.50;62.90;17.10;97798.00;;;;5024270;28;20196;-79
2023/11/04 10:06:16;;;;;;;1.92;0.63;;;15.50;62.80;17.10;97783.00;;;;5027542;28;20197;-80
2023/11/04 10:08:43;;;;;;;1.42;0.70;;;15.50;62.80;17.20;97781.00;;;;5028925;28;20200;-78
2023/11/04 10:11:10;;;;;;;3.42;1.20;;;15.60;62.80;17.20;97768.00;;;;5027206;28;20818;-79
2023/11/04 10:13:39;;;;;;;3.15;0.85;;;15.60;62.80;17.30;97768.00;;;;5018442;28;20185;-80
2023/11/04 10:16:07;;;;;;;1.42;0.55;;;15.60;62.80;17.30;97765.00;;;;5024696;28;20200;-80
2023/11/04 10:18:34;;;;;;;1.95;0.50;;;15.70;62.70;17.30;97767.00;;;;5012630;28;20263;-79
2023/11/04 10:21:02;;;;;;;3.33;0.90;;;15.70;62.60;17.40;97765.00;;;;5018608;28;20201;-79
2023/11/04 10:23:30;;;;;;;0.95;0.60;;;15.70;62.50;17.40;97748.00;;;;5009693;28;20193;-80
2023/11/04 10:26:03;;;;;;;1.23;0.40;;;15.70;62.30;17.40;97738.00;;;;5027994;28;20234;-79
2023/11/04 10:28:30;;;;;;;1.30;0.52;;;15.80;62.30;17.40;97746.00;;;;5023147;28;20280;-79
2023/11/04 10:31:05;;;;;;;2.08;0.40;;;15.80;62.00;17.30;97729.00;;;;5024237;28;20196;-79
2023/11/04 10:33:35;;;;;;;3.95;0.90;;;15.80;61.90;17.40;97722.00;;;;5018867;28;20204;-79
2023/11/04 10:36:05;;;;;;;4.53;0.60;;;15.80;61.90;17.40;97718.00;;;;5016045;28;20224;-78
2023/11/04 10:38:35;;;;;;;3.05;0.82;;;15.80;61.80;17.40;97713.00;;;;5024934;28;20625;-79
2023/11/04 10:41:05;;;;;;;2.40;0.88;;;15.80;61.70;17.40;97704.00;;;;5025037;28;20303;-80
2023/11/04 10:43:40;;;;;;;1.83;0.63;;;15.80;61.50;17.30;97696.00;;;;5013512;28;20701;-79
2023/11/04 10:46:14;;;;;;;2.03;0.45;;;15.80;61.50;17.30;97688.00;;;;5015877;28;20196;-79
2023/11/04 10:48:51;;;;;;;3.83;0.60;;;15.80;61.40;17.30;97681.00;;;;5019274;28;20197;-79
2023/11/04 10:51:25;;;;;;;2.45;0.70;;;15.80;61.50;17.30;97671.00;;;;5012626;28;20198;-79
2023/11/04 10:54:06;;;;;;;1.55;0.90;;;15.80;61.70;17.20;97667.00;;;;5009624;28;20201;-79
2023/11/04 10:56:42;;;;;;;0.52;0.40;;;15.80;61.50;17.30;97652.00;;;;5020588;28;20287;-79